Time;durP1;ratioP1;P1;durP2;ratioP2;P2;SDS_P1;SDS_P2;PMS_P1;PMS_P2;Temp;Humidity;BMP_temperature;BMP_pressure;BME280_temperature;BME280_humidity;BME280_pressure;Samples;Min_cycle;Max_cycle;Signal;HPM_P1;HPM_P2
2024/04/12 00:01:47;;;;;;;1.97;1.87;;;13.50;99.00;;;;;;5393956;26;21007;-72
2024/04/12 00:04:20;;;;;;;3.47;1.60;;;13.50;99.00;;;;;;5387968;26;21004;-72
2024/04/12 00:06:54;;;;;;;2.00;1.50;;;13.40;98.90;;;;;;5386919;26;20500;-71
2024/04/12 00:09:21;;;;;;;1.60;1.50;;;13.40;99.20;;;;;;5394032;26;20491;-72
2024/04/12 00:11:53;;;;;;;6.73;2.80;;;13.40;99.20;;;;;;5389567;26;21116;-72
2024/04/12 00:14:21;;;;;;;2.20;2.00;;;13.40;99.40;;;;;;5398829;26;20543;-72
2024/04/12 00:16:52;;;;;;;3.63;2.00;;;13.30;99.40;;;;;;5389898;26;20488;-73
2024/04/12 00:19:23;;;;;;;2.30;1.83;;;13.30;99.40;;;;;;5389193;26;20589;-71
2024/04/12 00:21:52;;;;;;;4.53;1.83;;;13.20;99.60;;;;;;5395863;26;20511;-72
2024/04/12 00:24:23;;;;;;;2.70;1.90;;;13.20;99.80;;;;;;5364750;26;20595;-72
2024/04/12 00:26:51;;;;;;;6.00;2.00;;;13.20;99.90;;;;;;5386728;26;20481;-74
2024/04/12 00:29:26;;;;;;;2.40;1.43;;;13.20;99.90;;;;;;5388211;26;20589;-73
2024/04/12 00:32:13;;;;;;;2.27;2.17;;;13.20;99.90;;;;;;5387847;26;20542;-74
2024/04/12 00:34:41;;;;;;;2.30;1.77;;;13.30;99.90;;;;;;5392243;26;20535;-71
2024/04/12 00:37:09;;;;;;;2.13;1.93;;;13.30;99.90;;;;;;5385334;26;20480;-71
2024/04/12 00:39:35;;;;;;;2.60;1.73;;;13.20;99.90;;;;;;5398666;26;20597;-72
2024/04/12 00:42:08;;;;;;;1.80;1.70;;;13.20;99.90;;;;;;5397673;26;20491;-72
2024/04/12 00:44:41;;;;;;;2.40;1.97;;;13.20;99.90;;;;;;5397153;26;20600;-71
2024/04/12 00:47:20;;;;;;;3.00;1.70;;;13.20;99.90;;;;;;5387357;26;20490;-72
2024/04/12 00:49:49;;;;;;;2.77;1.70;;;13.20;99.90;;;;;;5393306;26;20529;-71
2024/04/12 00:52:15;;;;;;;3.30;1.73;;;13.10;99.90;;;;;;5395340;26;20484;-72
2024/04/12 00:54:42;;;;;;;2.30;1.90;;;13.10;99.90;;;;;;5362671;26;20484;-71
2024/04/12 00:57:10;;;;;;;6.63;1.63;;;13.10;99.90;;;;;;5394086;26;20547;-72
2024/04/12 00:59:36;;;;;;;1.60;1.50;;;13.20;99.90;;;;;;5393824;26;20484;-72
2024/04/12 01:02:08;;;;;;;3.77;1.67;;;13.20;99.90;;;;;;5387713;26;20544;-74
2024/04/12 01:04:36;;;;;;;2.40;2.10;;;13.10;99.90;;;;;;5360842;26;20489;-73
2024/04/12 01:07:05;;;;;;;1.10;1.00;;;13.10;99.90;;;;;;5388269;26;20535;-72
2024/04/12 01:09:35;;;;;;;4.20;1.97;;;13.00;99.90;;;;;;5382626;26;20524;-72
2024/04/12 01:12:02;;;;;;;2.67;1.83;;;13.00;99.90;;;;;;5388248;26;20599;-73
2024/04/12 01:14:27;;;;;;;3.07;1.90;;;13.00;99.90;;;;;;5392592;26;20546;-71
2024/04/12 01:16:54;;;;;;;2.10;1.60;;;13.10;99.90;;;;;;5393394;26;20599;-73
2024/04/12 01:19:21;;;;;;;2.00;1.40;;;13.00;99.90;;;;;;5403062;26;20261;-72
2024/04/12 01:21:47;;;;;;;1.87;1.77;;;13.10;99.90;;;;;;5388494;26;21064;-72
2024/04/12 01:24:16;;;;;;;2.60;1.77;;;13.10;99.90;;;;;;5385739;26;20590;-73
2024/04/12 01:26:42;;;;;;;2.90;1.63;;;13.00;99.90;;;;;;5398510;26;20535;-72
2024/04/12 01:29:10;;;;;;;4.10;2.07;;;13.00;99.90;;;;;;5388764;26;20552;-73
2024/04/12 01:31:38;;;;;;;1.37;1.27;;;12.90;99.90;;;;;;5391139;26;20537;-71
2024/04/12 01:34:12;;;;;;;2.10;1.83;;;12.90;99.90;;;;;;5385366;26;20367;-72
2024/04/12 01:36:38;;;;;;;4.93;2.20;;;12.90;99.90;;;;;;5395572;26;20483;-71
2024/04/12 01:39:11;;;;;;;1.57;1.47;;;12.90;99.90;;;;;;5393581;26;20487;-72
2024/04/12 01:41:38;;;;;;;2.50;1.87;;;12.90;99.90;;;;;;5367030;26;20500;-73
2024/04/12 01:44:06;;;;;;;2.13;1.50;;;12.90;99.90;;;;;;5390820;26;20465;-72
2024/04/12 01:46:34;;;;;;;2.70;1.60;;;12.90;99.90;;;;;;5366923;26;20484;-73
2024/04/12 01:49:01;;;;;;;2.97;1.53;;;12.90;99.90;;;;;;5395082;26;20487;-74
2024/04/12 01:51:30;;;;;;;1.90;1.77;;;12.80;99.90;;;;;;5369057;26;20490;-71
2024/04/12 01:53:57;;;;;;;4.73;1.67;;;12.80;99.90;;;;;;5390567;26;20564;-71
2024/04/12 01:56:24;;;;;;;3.23;2.10;;;12.70;99.90;;;;;;5411971;26;20567;-70
2024/04/12 01:58:51;;;;;;;3.63;1.60;;;12.70;99.90;;;;;;5386827;26;20480;-72
2024/04/12 02:01:17;;;;;;;3.20;1.77;;;12.70;99.90;;;;;;5391443;26;20482;-71
2024/04/12 02:03:43;;;;;;;3.10;2.13;;;12.80;99.90;;;;;;5388323;26;20537;-71
2024/04/12 02:06:09;;;;;;;2.53;2.00;;;12.70;99.90;;;;;;5400499;26;20295;-73
2024/04/12 02:08:35;;;;;;;2.93;1.93;;;12.70;99.90;;;;;;5393190;26;20499;-72
2024/04/12 02:11:09;;;;;;;2.67;1.97;;;12.70;99.90;;;;;;5391222;26;20265;-70
2024/04/12 02:13:37;;;;;;;1.97;1.70;;;12.70;99.90;;;;;;5390431;26;20494;-71
2024/04/12 02:16:10;;;;;;;2.10;1.70;;;12.60;99.90;;;;;;5380192;26;20492;-72
2024/04/12 02:18:38;;;;;;;5.20;1.90;;;12.60;99.90;;;;;;5397720;26;20497;-70
2024/04/12 02:21:06;;;;;;;3.00;2.30;;;12.60;99.90;;;;;;5393601;26;20559;-70
2024/04/12 02:23:34;;;;;;;3.00;1.67;;;12.60;99.90;;;;;;5386193;26;20557;-71
2024/04/12 02:26:01;;;;;;;3.17;1.70;;;12.60;99.90;;;;;;5400065;26;20499;-70
2024/04/12 02:28:27;;;;;;;2.03;1.53;;;12.60;99.90;;;;;;5394427;26;20500;-71
2024/04/12 02:30:55;;;;;;;1.50;1.40;;;12.60;99.90;;;;;;5394575;26;20854;-69
2024/04/12 02:33:29;;;;;;;2.23;1.93;;;12.60;99.90;;;;;;5388051;26;20472;-71
2024/04/12 02:36:11;;;;;;;1.57;1.47;;;12.50;99.90;;;;;;5391957;26;20481;-71
2024/04/12 02:38:42;;;;;;;6.00;2.00;;;12.50;99.90;;;;;;5385761;26;20555;-73
2024/04/12 02:41:13;;;;;;;2.23;1.87;;;12.40;99.90;;;;;;5391044;26;20491;-71
2024/04/12 02:43:40;;;;;;;4.40;2.23;;;12.40;99.90;;;;;;5395425;26;21212;-69
2024/04/12 02:46:10;;;;;;;2.87;1.77;;;12.40;99.90;;;;;;5386814;26;20916;-70
2024/04/12 02:48:40;;;;;;;4.37;2.00;;;12.40;99.90;;;;;;5395003;26;20595;-69
2024/04/12 02:51:06;;;;;;;1.70;1.60;;;12.40;99.90;;;;;;5366131;26;20488;-68
2024/04/12 02:53:36;;;;;;;3.63;1.97;;;12.40;99.90;;;;;;5402660;26;21135;-71
2024/04/12 02:56:31;;;;;;;3.17;1.60;;;12.40;99.90;;;;;;5372812;26;20490;-71
2024/04/12 02:58:57;;;;;;;2.20;1.67;;;12.30;99.90;;;;;;5372982;26;20954;-69
2024/04/12 03:01:25;;;;;;;3.80;1.70;;;12.30;99.90;;;;;;5395764;26;20878;-72
2024/04/12 03:03:51;;;;;;;1.53;1.40;;;12.30;99.90;;;;;;5397287;26;20468;-71
2024/04/12 03:06:20;;;;;;;4.40;2.17;;;12.20;99.90;;;;;;5359029;26;20607;-68
2024/04/12 03:08:49;;;;;;;1.60;1.50;;;12.20;99.90;;;;;;5389655;26;20834;-69
2024/04/12 03:11:25;;;;;;;1.27;1.17;;;12.20;99.90;;;;;;5390497;26;20483;-71
2024/04/12 03:13:51;;;;;;;1.63;1.53;;;12.20;99.90;;;;;;5386309;26;20487;-71
2024/04/12 03:16:19;;;;;;;2.53;2.10;;;12.20;99.90;;;;;;5395068;26;21030;-70
2024/04/12 03:18:46;;;;;;;3.07;1.83;;;12.20;99.90;;;;;;5390630;26;20594;-72
2024/04/12 03:21:13;;;;;;;2.80;1.73;;;12.20;99.90;;;;;;5399408;26;20566;-71
2024/04/12 03:23:43;;;;;;;1.90;1.70;;;12.10;99.90;;;;;;5397043;26;20581;-72
2024/04/12 03:26:10;;;;;;;2.80;1.60;;;12.10;99.90;;;;;;5393658;26;20487;-71
2024/04/12 03:28:36;;;;;;;4.93;1.77;;;12.20;99.90;;;;;;5357048;26;20488;-71
2024/04/12 03:31:07;;;;;;;2.20;1.97;;;12.10;99.90;;;;;;5389197;26;20571;-71
2024/04/12 03:33:42;;;;;;;2.33;2.10;;;12.10;99.90;;;;;;5396666;26;20257;-73
2024/04/12 03:41:57;;;;;;;5.07;1.77;;;12.10;99.90;;;;;;5386874;26;20507;-72
2024/04/12 03:44:30;;;;;;;1.63;1.50;;;12.10;99.90;;;;;;5396951;26;20478;-71
2024/04/12 03:47:02;;;;;;;1.40;1.27;;;12.10;99.90;;;;;;5364741;26;20509;-71
2024/04/12 03:49:30;;;;;;;4.17;1.60;;;12.10;99.90;;;;;;5387918;26;20535;-72
2024/04/12 03:51:57;;;;;;;2.73;2.03;;;12.10;99.90;;;;;;5399703;26;20539;-71
2024/04/12 03:54:24;;;;;;;1.93;1.67;;;12.00;99.90;;;;;;5395522;26;20618;-71
2024/04/12 03:57:05;;;;;;;2.47;2.27;;;12.00;99.90;;;;;;5356818;26;20498;-71
2024/04/12 03:59:34;;;;;;;1.90;1.60;;;11.90;99.90;;;;;;5389375;26;20496;-70
2024/04/12 04:02:06;;;;;;;2.63;2.03;;;11.90;99.90;;;;;;5385016;26;20589;-71
2024/04/12 04:04:44;;;;;;;3.50;2.60;;;11.90;99.90;;;;;;5393405;26;20488;-72
2024/04/12 04:07:14;;;;;;;2.20;2.00;;;11.90;99.90;;;;;;5388942;26;20634;-73
2024/04/12 04:09:42;;;;;;;2.30;2.10;;;11.90;99.90;;;;;;5389384;26;20545;-71
2024/04/12 04:12:14;;;;;;;2.27;1.70;;;11.80;99.90;;;;;;5386031;26;20489;-72
2024/04/12 04:14:47;;;;;;;4.13;1.90;;;11.80;99.90;;;;;;5390817;26;20604;-71
2024/04/12 04:17:14;;;;;;;2.37;2.17;;;11.80;99.90;;;;;;5388093;26;20587;-71
2024/04/12 04:19:41;;;;;;;2.50;1.77;;;11.80;99.90;;;;;;5394428;26;20834;-70
2024/04/12 04:24:53;;;;;;;4.33;1.90;;;11.80;99.90;;;;;;5393937;26;20577;-71
2024/04/12 04:27:22;;;;;;;2.30;2.00;;;11.80;99.90;;;;;;5391487;26;20495;-72
2024/04/12 04:29:57;;;;;;;6.20;2.30;;;11.80;99.90;;;;;;5395175;26;20879;-71
2024/04/12 04:32:25;;;;;;;2.33;1.80;;;11.80;99.90;;;;;;5390002;26;20476;-70
2024/04/12 04:35:04;;;;;;;5.83;2.10;;;11.80;99.90;;;;;;5361838;26;20535;-71
2024/04/12 04:37:39;;;;;;;2.23;1.70;;;11.80;99.90;;;;;;5394801;26;20564;-71
2024/04/12 04:40:19;;;;;;;1.93;1.70;;;11.80;99.90;;;;;;5396837;26;20474;-71
2024/04/12 04:42:45;;;;;;;2.13;1.93;;;11.80;99.90;;;;;;5396790;26;20482;-72
2024/04/12 04:45:17;;;;;;;2.30;2.10;;;11.80;99.90;;;;;;5402215;26;21103;-71
2024/04/12 04:47:44;;;;;;;1.90;1.70;;;11.70;99.90;;;;;;5393359;26;20551;-72
2024/04/12 04:50:13;;;;;;;2.57;2.37;;;11.70;99.90;;;;;;5393785;26;21064;-74
2024/04/12 04:52:39;;;;;;;3.57;2.07;;;11.70;99.90;;;;;;5387435;26;21031;-72
2024/04/12 04:55:12;;;;;;;2.47;2.27;;;11.70;99.90;;;;;;5385283;26;20582;-72
2024/04/12 04:57:43;;;;;;;2.70;2.10;;;11.60;99.90;;;;;;5391317;26;20498;-72
2024/04/12 05:00:19;;;;;;;2.33;2.13;;;11.60;99.90;;;;;;5396737;26;21085;-70
2024/04/12 05:02:49;;;;;;;2.07;1.90;;;11.60;99.90;;;;;;5382438;26;20841;-71
2024/04/12 05:05:22;;;;;;;2.37;1.80;;;11.50;99.90;;;;;;5397362;26;20493;-73
2024/04/12 05:07:58;;;;;;;7.50;1.80;;;11.50;99.90;;;;;;5391161;26;20498;-71
2024/04/12 05:10:25;;;;;;;3.77;2.00;;;11.50;99.90;;;;;;5395167;26;20589;-71
2024/04/12 05:12:51;;;;;;;2.10;2.00;;;11.50;99.90;;;;;;5383847;26;20496;-69
2024/04/12 05:18:05;;;;;;;2.30;1.70;;;11.50;99.90;;;;;;5391148;26;20258;-72
2024/04/12 05:20:40;;;;;;;3.00;2.00;;;11.40;99.90;;;;;;5364496;26;21077;-69
2024/04/12 05:23:12;;;;;;;2.40;2.07;;;11.40;99.90;;;;;;5403972;26;20503;-71
2024/04/12 05:25:43;;;;;;;2.27;1.80;;;11.40;99.90;;;;;;5398257;26;20532;-73
2024/04/12 05:28:12;;;;;;;3.77;2.00;;;11.40;99.90;;;;;;5393570;26;20491;-74
2024/04/12 05:30:40;;;;;;;7.33;3.00;;;11.40;99.90;;;;;;5385816;26;20541;-73
2024/04/12 05:33:06;;;;;;;3.90;2.20;;;11.40;99.90;;;;;;5394560;26;20551;-74
2024/04/12 05:35:35;;;;;;;2.93;2.47;;;11.40;99.90;;;;;;5370405;26;20558;-74
2024/04/12 05:38:07;;;;;;;2.87;2.40;;;11.40;99.90;;;;;;5396955;26;20549;-74
2024/04/12 05:40:34;;;;;;;3.20;2.03;;;11.40;99.90;;;;;;5400110;26;20941;-74
2024/04/12 05:43:00;;;;;;;2.40;2.20;;;11.30;99.90;;;;;;5392221;26;20583;-71
2024/04/12 05:45:27;;;;;;;4.80;2.53;;;11.40;99.90;;;;;;5387130;26;20568;-72
2024/04/12 05:47:54;;;;;;;2.77;2.00;;;11.30;99.90;;;;;;5391631;26;20490;-70
2024/04/12 05:50:25;;;;;;;3.53;2.47;;;11.40;99.90;;;;;;5388413;26;20560;-72
2024/04/12 05:52:52;;;;;;;11.13;2.90;;;11.30;99.90;;;;;;5396434;26;20484;-71
2024/04/12 05:55:19;;;;;;;3.13;2.50;;;11.40;99.90;;;;;;5402935;26;25142;-71
2024/04/12 05:57:47;;;;;;;5.60;3.03;;;11.40;99.90;;;;;;5394936;26;20501;-73
2024/04/12 06:00:12;;;;;;;3.47;2.50;;;11.40;99.90;;;;;;5367989;26;20529;-70
2024/04/12 06:02:43;;;;;;;6.00;2.30;;;11.50;99.90;;;;;;5382741;26;20495;-71
2024/04/12 06:05:09;;;;;;;5.87;2.83;;;11.50;99.90;;;;;;5396403;26;20342;-71
2024/04/12 06:07:37;;;;;;;4.60;3.20;;;11.50;99.90;;;;;;5385873;26;20547;-73
2024/04/12 06:10:04;;;;;;;2.50;2.30;;;11.50;99.90;;;;;;5383597;26;20759;-74
2024/04/12 06:12:33;;;;;;;2.87;2.60;;;11.50;99.90;;;;;;5386436;26;20476;-76
2024/04/12 06:15:04;;;;;;;3.60;2.63;;;11.60;99.90;;;;;;5396576;26;20613;-74
2024/04/12 06:17:30;;;;;;;5.30;2.97;;;11.60;99.90;;;;;;5387719;26;20500;-75
2024/04/12 06:19:59;;;;;;;5.87;3.30;;;11.60;99.90;;;;;;5395741;26;20533;-73
2024/04/12 06:22:26;;;;;;;2.97;2.70;;;11.60;99.90;;;;;;5370398;26;20348;-71
2024/04/12 06:24:54;;;;;;;3.07;2.63;;;11.70;99.90;;;;;;5354509;26;20548;-70
2024/04/12 06:27:33;;;;;;;3.27;1.97;;;11.70;99.90;;;;;;5359367;26;20484;-74
2024/04/12 06:30:05;;;;;;;3.50;2.27;;;11.80;99.90;;;;;;5355130;26;21135;-71
2024/04/12 06:32:31;;;;;;;3.80;2.40;;;11.80;99.90;;;;;;5361101;26;20563;-71
2024/04/12 06:34:57;;;;;;;2.10;1.80;;;11.80;99.90;;;;;;5362189;26;20498;-74
2024/04/12 06:37:24;;;;;;;3.57;2.20;;;11.80;99.90;;;;;;5347970;26;20533;-71
2024/04/12 06:39:55;;;;;;;2.83;2.60;;;11.90;99.90;;;;;;5350530;26;20521;-71
2024/04/12 06:42:21;;;;;;;4.00;2.10;;;11.80;99.90;;;;;;5356256;26;20248;-74
2024/04/12 06:44:52;;;;;;;2.37;1.63;;;11.90;99.90;;;;;;5353771;26;20599;-69
2024/04/12 06:47:19;;;;;;;1.53;1.40;;;11.90;99.90;;;;;;5329237;26;20470;-71
2024/04/12 06:49:45;;;;;;;2.60;1.50;;;12.00;99.90;;;;;;5345214;26;20546;-71
2024/04/12 06:52:14;;;;;;;2.50;1.70;;;11.90;99.90;;;;;;5352705;26;20262;-71
2024/04/12 06:54:44;;;;;;;5.60;1.87;;;12.00;99.90;;;;;;5349080;26;21151;-71
2024/04/12 06:57:18;;;;;;;2.13;1.53;;;12.10;99.90;;;;;;5347023;26;20481;-71
2024/04/12 06:59:53;;;;;;;1.70;1.60;;;12.20;99.90;;;;;;5345060;26;20544;-72
2024/04/12 07:02:23;;;;;;;4.10;1.60;;;12.20;99.90;;;;;;5350052;26;20558;-71
2024/04/12 07:04:53;;;;;;;1.73;1.47;;;12.30;99.90;;;;;;5356613;26;20570;-71
2024/04/12 07:07:23;;;;;;;6.63;2.10;;;12.40;99.90;;;;;;5349578;26;20555;-72
2024/04/12 07:09:57;;;;;;;4.23;1.97;;;12.50;99.90;;;;;;5350107;26;20952;-71
2024/04/12 07:12:27;;;;;;;4.47;1.60;;;12.60;99.90;;;;;;5365353;26;20525;-71
2024/04/12 07:14:57;;;;;;;1.50;1.40;;;12.60;99.90;;;;;;5358570;26;20528;-71
2024/04/12 07:17:28;;;;;;;3.10;1.63;;;12.80;99.90;;;;;;5322853;26;20991;-73
2024/04/12 07:19:57;;;;;;;2.47;1.30;;;12.90;99.90;;;;;;5361232;26;20485;-71
2024/04/12 07:22:29;;;;;;;1.50;1.40;;;13.00;99.90;;;;;;5353191;26;20490;-73
2024/04/12 07:24:55;;;;;;;3.13;1.70;;;13.10;99.90;;;;;;5344059;26;20502;-72
2024/04/12 07:27:27;;;;;;;1.93;1.80;;;13.20;99.90;;;;;;5356181;26;20569;-71
2024/04/12 07:29:53;;;;;;;3.30;1.63;;;13.30;99.90;;;;;;5355403;26;21076;-72
2024/04/12 07:32:22;;;;;;;2.97;1.47;;;13.40;99.90;;;;;;5349861;26;20557;-72
2024/04/12 07:34:48;;;;;;;2.57;1.90;;;13.50;99.90;;;;;;5358834;26;20496;-70
2024/04/12 07:37:26;;;;;;;4.00;2.00;;;13.60;99.90;;;;;;5346255;26;20896;-72
2024/04/12 07:40:15;;;;;;;3.37;1.73;;;13.70;99.90;;;;;;5354983;26;20536;-71
2024/04/12 07:42:39;;;;;;;1.53;1.40;;;13.70;99.90;;;;;;5370779;26;21075;-72
2024/04/12 07:45:06;;;;;;;2.20;1.50;;;13.80;99.90;;;;;;5396798;26;20552;-72
2024/04/12 07:47:35;;;;;;;2.27;1.20;;;13.90;99.90;;;;;;5390768;26;20593;-70
2024/04/12 07:50:08;;;;;;;2.40;2.00;;;14.10;99.90;;;;;;5358143;26;20488;-73
2024/04/12 07:52:34;;;;;;;1.60;1.50;;;14.20;99.90;;;;;;5386133;26;20484;-71
2024/04/12 07:55:01;;;;;;;1.63;1.53;;;14.30;99.90;;;;;;5394170;26;21009;-74
2024/04/12 07:57:29;;;;;;;6.47;1.47;;;14.50;99.90;;;;;;5354764;26;20541;-73
2024/04/12 07:59:55;;;;;;;3.33;1.80;;;14.50;99.90;;;;;;5363869;26;20501;-72
2024/04/12 08:02:21;;;;;;;4.30;1.97;;;14.70;99.90;;;;;;5320981;26;20478;-72
2024/04/12 08:04:47;;;;;;;1.80;1.50;;;14.80;99.90;;;;;;5353692;26;20356;-72
2024/04/12 08:07:19;;;;;;;3.67;2.50;;;14.90;99.90;;;;;;5349173;26;20269;-74
2024/04/12 08:09:46;;;;;;;2.10;1.90;;;15.00;99.90;;;;;;5348886;26;20334;-71
2024/04/12 08:12:17;;;;;;;2.30;1.67;;;15.00;99.90;;;;;;5372883;26;21004;-72
2024/04/12 08:14:53;;;;;;;5.33;2.30;;;15.10;99.90;;;;;;5393274;26;20495;-72
2024/04/12 08:17:27;;;;;;;2.90;1.87;;;15.30;99.90;;;;;;5396600;26;20559;-72
2024/04/12 08:19:57;;;;;;;2.00;1.83;;;15.40;99.90;;;;;;5393156;26;20585;-72
2024/04/12 08:22:25;;;;;;;2.80;1.50;;;15.50;99.90;;;;;;5388132;26;20553;-72
2024/04/12 08:24:52;;;;;;;2.63;1.77;;;15.50;99.90;;;;;;5386686;26;21035;-70
2024/04/12 08:27:24;;;;;;;1.73;1.27;;;15.60;99.90;;;;;;5402330;26;20623;-74
2024/04/12 08:29:51;;;;;;;2.03;1.87;;;15.80;99.90;;;;;;5388599;26;20491;-72
2024/04/12 08:32:27;;;;;;;3.43;2.20;;;16.00;99.90;;;;;;5392565;26;21064;-71
2024/04/12 08:34:58;;;;;;;6.20;1.97;;;16.10;99.90;;;;;;5392808;26;20500;-71
2024/04/12 08:37:31;;;;;;;2.53;2.33;;;16.20;99.90;;;;;;5397094;26;20499;-72
2024/04/12 08:40:08;;;;;;;2.23;1.57;;;16.30;99.90;;;;;;5386104;26;20555;-73
2024/04/12 08:42:37;;;;;;;2.37;1.40;;;16.30;99.90;;;;;;5395682;26;21126;-73
2024/04/12 08:45:17;;;;;;;3.90;1.10;;;16.50;99.90;;;;;;5391182;26;20591;-72
2024/04/12 08:48:22;;;;;;;1.10;1.00;;;16.60;99.90;;;;;;5397921;26;20498;-72
2024/04/12 08:50:39;;;;;;;1.50;1.40;;;16.60;99.90;;;;;;5388442;26;20592;-73
2024/04/12 08:53:15;;;;;;;2.00;1.87;;;16.90;99.90;;;;;;5387386;26;21076;-73
2024/04/12 08:55:44;;;;;;;1.37;1.27;;;17.20;99.90;;;;;;5356538;26;20273;-72
2024/04/12 08:58:10;;;;;;;1.20;1.20;;;17.30;99.90;;;;;;5388140;26;20492;-72
2024/04/12 09:00:38;;;;;;;5.40;1.93;;;17.30;99.90;;;;;;5389215;26;20638;-75
2024/04/12 09:03:26;;;;;;;3.30;2.00;;;17.20;99.90;;;;;;5397254;26;20491;-72
2024/04/12 09:05:56;;;;;;;1.50;1.40;;;17.30;99.90;;;;;;5382947;26;20630;-73
2024/04/12 09:08:28;;;;;;;1.83;1.50;;;17.60;99.90;;;;;;5389081;26;20531;-72
2024/04/12 09:10:59;;;;;;;2.43;1.70;;;17.90;99.90;;;;;;5396848;26;20543;-72
2024/04/12 09:13:27;;;;;;;1.93;1.50;;;18.00;99.90;;;;;;5385084;26;20872;-74
2024/04/12 09:15:53;;;;;;;1.60;1.50;;;18.10;99.90;;;;;;5403331;26;20486;-73
2024/04/12 09:18:26;;;;;;;2.60;2.10;;;18.10;99.90;;;;;;5390378;26;20498;-73
2024/04/12 09:21:05;;;;;;;2.23;1.73;;;18.00;99.90;;;;;;5387527;26;20647;-72
2024/04/12 09:23:36;;;;;;;2.40;1.43;;;17.80;99.90;;;;;;5399312;26;20850;-73
2024/04/12 09:28:46;;;;;;;2.83;1.43;;;18.10;99.90;;;;;;5391660;26;20496;-73
2024/04/12 09:34:22;;;;;;;1.73;1.33;;;18.00;99.90;;;;;;5397871;26;20884;-73
2024/04/12 09:37:02;;;;;;;1.57;1.40;;;18.00;99.90;;;;;;5398274;26;20473;-74
2024/04/12 09:39:57;;;;;;;4.17;2.00;;;17.90;99.90;;;;;;5389220;26;21070;-73
2024/04/12 09:42:28;;;;;;;4.17;3.13;;;17.90;99.90;;;;;;5386905;26;20599;-73
2024/04/12 09:45:00;;;;;;;1.40;1.30;;;18.00;99.90;;;;;;5374661;26;20539;-73
2024/04/12 10:37:48;;;;;;;0.87;0.87;;;18.20;99.90;;;;;;5368122;26;20556;-73
2024/04/12 10:40:14;;;;;;;1.63;0.80;;;18.20;99.90;;;;;;5356134;26;20492;-73
2024/04/12 10:42:45;;;;;;;1.63;1.00;;;18.20;99.90;;;;;;5342882;26;20501;-73
2024/04/12 10:45:17;;;;;;;1.50;0.93;;;18.20;99.90;;;;;;5322940;26;20270;-73
2024/04/12 10:47:46;;;;;;;0.80;0.80;;;18.20;99.90;;;;;;5382686;26;20566;-73
2024/04/12 10:50:19;;;;;;;0.90;0.90;;;18.20;99.90;;;;;;5388701;26;20489;-72
2024/04/12 10:52:46;;;;;;;0.83;0.77;;;18.20;99.90;;;;;;5390023;26;20900;-74
2024/04/12 10:55:11;;;;;;;0.83;0.80;;;18.20;99.90;;;;;;5392277;26;20550;-72
2024/04/12 10:57:44;;;;;;;1.90;1.00;;;18.20;99.90;;;;;;5389814;26;20489;-71
2024/04/12 11:00:14;;;;;;;0.90;0.90;;;18.20;99.90;;;;;;5382891;26;20768;-70
2024/04/12 11:02:41;;;;;;;0.80;0.63;;;18.30;99.90;;;;;;5383540;26;20607;-73
2024/04/12 11:07:53;;;;;;;0.73;0.73;;;18.30;99.90;;;;;;5370212;26;20492;-70
2024/04/12 11:10:25;;;;;;;0.80;0.80;;;18.30;99.90;;;;;;5392267;26;20552;-75
2024/04/12 11:12:59;;;;;;;0.73;0.73;;;18.20;99.90;;;;;;5366161;26;20496;-73
2024/04/12 11:31:57;;;;;;;1.03;0.93;;;18.30;99.90;;;;;;5350818;26;21087;-73
2024/04/12 11:34:23;;;;;;;1.03;1.00;;;18.30;99.90;;;;;;5352527;26;20607;-71
2024/04/12 11:36:53;;;;;;;1.60;1.13;;;18.60;99.90;;;;;;5353118;26;21208;-74
2024/04/12 11:39:26;;;;;;;1.67;1.10;;;18.70;99.90;;;;;;5349302;26;20586;-70
2024/04/12 11:41:55;;;;;;;0.77;0.77;;;18.80;99.90;;;;;;5349740;26;21029;-72
2024/04/12 11:44:22;;;;;;;1.27;1.03;;;19.00;99.90;;;;;;5357985;26;20504;-72
2024/04/12 11:46:49;;;;;;;1.27;1.10;;;19.10;99.90;;;;;;5350824;26;20490;-74
2024/04/12 11:49:25;;;;;;;1.40;1.30;;;19.20;99.90;;;;;;5354208;26;20552;-74
2024/04/12 11:52:01;;;;;;;1.37;0.80;;;19.40;99.90;;;;;;5317066;26;20500;-73
2024/04/12 11:54:29;;;;;;;1.00;1.00;;;19.50;99.90;;;;;;5329665;26;21116;-71
2024/04/12 11:57:05;;;;;;;1.63;1.00;;;19.50;99.90;;;;;;5326742;26;20489;-71
2024/04/12 11:59:32;;;;;;;1.83;0.90;;;19.60;99.90;;;;;;5343545;26;20557;-73
2024/04/12 12:01:59;;;;;;;1.20;0.80;;;19.70;99.90;;;;;;5347459;26;20512;-72
2024/04/12 12:04:30;;;;;;;1.10;1.00;;;19.60;99.90;;;;;;5355673;26;20567;-74
2024/04/12 12:06:59;;;;;;;1.20;1.17;;;19.70;99.90;;;;;;5349511;26;20493;-72
2024/04/12 12:09:31;;;;;;;1.20;1.10;;;19.80;99.90;;;;;;5352980;26;20476;-73
2024/04/12 12:11:57;;;;;;;1.60;1.40;;;19.90;99.90;;;;;;5354927;26;20556;-73
2024/04/12 12:14:25;;;;;;;1.30;1.20;;;20.10;99.90;;;;;;5359239;26;20599;-72
2024/04/12 12:16:51;;;;;;;2.00;1.43;;;20.30;99.90;;;;;;5357276;26;20547;-75
2024/04/12 12:19:18;;;;;;;2.07;1.00;;;20.30;99.90;;;;;;5334670;26;20517;-72
2024/04/12 12:21:45;;;;;;;1.90;1.30;;;20.50;99.90;;;;;;5376173;26;20569;-72
2024/04/12 12:24:11;;;;;;;1.67;1.40;;;20.50;99.90;;;;;;5353786;26;20492;-73
2024/04/12 12:26:39;;;;;;;8.30;1.50;;;20.50;99.90;;;;;;5313145;26;20476;-72
2024/04/12 12:29:06;;;;;;;1.30;1.20;;;20.60;99.90;;;;;;5346585;26;20548;-75
2024/04/12 12:31:32;;;;;;;2.40;1.20;;;20.60;99.90;;;;;;5326446;26;20488;-72
2024/04/12 12:33:58;;;;;;;1.33;1.23;;;20.50;99.90;;;;;;5353724;26;20485;-72
2024/04/12 12:36:27;;;;;;;1.30;1.20;;;20.60;99.90;;;;;;5348294;26;20501;-70
2024/04/12 12:38:58;;;;;;;2.50;1.67;;;20.80;99.90;;;;;;5350741;26;20321;-73
2024/04/12 12:41:25;;;;;;;3.40;1.70;;;20.80;99.90;;;;;;5352698;26;20505;-72
2024/04/12 12:43:52;;;;;;;1.17;1.07;;;20.90;99.90;;;;;;5354056;26;20506;-75
2024/04/12 12:46:21;;;;;;;1.87;1.77;;;21.00;99.90;;;;;;5354051;26;20565;-73
2024/04/12 12:48:48;;;;;;;3.40;1.20;;;21.10;99.90;;;;;;5356158;26;20497;-71
2024/04/12 12:51:15;;;;;;;1.53;1.40;;;21.10;99.90;;;;;;5356050;26;20505;-74
2024/04/12 12:53:43;;;;;;;1.63;1.40;;;21.00;99.90;;;;;;5357700;26;21669;-73
2024/04/12 12:56:09;;;;;;;1.70;1.60;;;21.20;99.90;;;;;;5354247;26;20564;-69
2024/04/12 12:58:37;;;;;;;4.40;1.17;;;21.40;99.90;;;;;;5354109;26;20583;-73
2024/04/12 13:01:07;;;;;;;1.07;1.00;;;21.40;99.90;;;;;;5349103;26;20263;-71
2024/04/12 13:03:36;;;;;;;1.40;1.30;;;21.40;99.90;;;;;;5352697;26;20567;-74
2024/04/12 13:06:07;;;;;;;1.50;1.40;;;21.40;99.90;;;;;;5378047;26;20482;-74
2024/04/12 13:08:37;;;;;;;6.10;1.57;;;21.40;99.90;;;;;;5367001;26;21124;-73
2024/04/12 13:11:08;;;;;;;1.40;1.30;;;21.60;99.90;;;;;;5362318;26;20490;-72
2024/04/12 13:13:39;;;;;;;1.13;1.03;;;21.70;99.90;;;;;;5352126;26;21045;-72
2024/04/12 13:16:11;;;;;;;1.50;1.40;;;21.90;99.90;;;;;;5409530;26;20502;-72
2024/04/12 13:18:43;;;;;;;2.53;1.30;;;22.00;99.90;;;;;;5391317;26;20561;-76
2024/04/12 13:21:10;;;;;;;2.00;1.10;;;22.10;99.90;;;;;;5368060;26;20630;-76
2024/04/12 13:23:40;;;;;;;1.23;1.13;;;22.20;99.90;;;;;;5361042;26;20945;-73
2024/04/12 13:26:09;;;;;;;2.00;1.20;;;22.40;99.90;;;;;;5364544;26;20552;-71
2024/04/12 13:28:35;;;;;;;1.60;1.50;;;22.20;99.90;;;;;;5361601;26;20534;-73
2024/04/12 13:31:01;;;;;;;1.67;1.57;;;22.30;99.90;;;;;;5358136;26;20550;-72
2024/04/12 13:33:27;;;;;;;1.37;1.27;;;22.20;99.90;;;;;;5349056;26;20636;-74
2024/04/12 13:35:54;;;;;;;6.20;1.30;;;22.20;99.90;;;;;;5350298;26;20512;-74
2024/04/12 13:38:20;;;;;;;2.03;1.20;;;22.10;99.90;;;;;;5331184;26;20321;-72
2024/04/12 13:40:49;;;;;;;1.50;1.40;;;22.00;99.90;;;;;;5322233;26;21050;-74
2024/04/12 13:43:16;;;;;;;1.70;1.57;;;21.90;99.90;;;;;;5343122;26;20540;-72
2024/04/12 13:51:18;;;;;;;1.60;1.50;;;22.00;99.90;;;;;;5343514;26;20501;-72
2024/04/12 13:53:50;;;;;;;1.60;1.50;;;21.90;99.90;;;;;;5344761;26;20845;-73
2024/04/12 13:58:57;;;;;;;2.43;1.50;;;21.90;99.90;;;;;;5344212;26;20497;-73
2024/04/12 14:01:23;;;;;;;1.60;1.50;;;21.90;99.90;;;;;;5351309;26;20578;-70
2024/04/12 14:04:01;;;;;;;5.50;1.90;;;22.00;99.90;;;;;;5356996;26;20849;-74
2024/04/12 14:06:27;;;;;;;1.30;1.20;;;22.00;99.90;;;;;;5364527;26;21063;-74
2024/04/12 14:08:54;;;;;;;2.00;1.67;;;22.20;99.90;;;;;;5370389;26;20498;-73
2024/04/12 14:11:21;;;;;;;2.63;1.43;;;22.20;99.90;;;;;;5388851;26;20351;-74
2024/04/12 14:13:47;;;;;;;2.20;1.30;;;22.20;99.90;;;;;;5384030;26;20772;-75
2024/04/12 14:16:13;;;;;;;2.10;1.90;;;22.20;99.90;;;;;;5395277;26;20621;-72
2024/04/12 14:18:39;;;;;;;2.93;1.60;;;22.20;99.90;;;;;;5373680;26;20490;-73
2024/04/12 14:21:07;;;;;;;2.03;1.57;;;22.20;99.90;;;;;;5381200;26;21056;-73
2024/04/12 14:23:32;;;;;;;1.80;1.70;;;22.30;99.90;;;;;;5392173;26;20410;-72
2024/04/12 14:25:58;;;;;;;3.60;2.20;;;22.20;99.90;;;;;;5358250;26;20884;-72
2024/04/12 14:28:28;;;;;;;2.13;1.80;;;22.30;99.90;;;;;;5394520;26;20261;-72
2024/04/12 14:30:55;;;;;;;1.57;1.47;;;22.40;99.90;;;;;;5385277;26;20563;-71
2024/04/12 14:33:22;;;;;;;2.87;2.03;;;22.40;99.90;;;;;;5360422;26;20490;-73
2024/04/12 14:35:48;;;;;;;2.13;1.50;;;22.40;99.90;;;;;;5392690;26;20529;-74